createdAt,value
2019-01-11T00:01:49.397Z,7.37
2019-01-11T00:04:19.226Z,7.20
2019-01-11T00:06:48.975Z,7.30
2019-01-11T00:09:19.697Z,7.30
2019-01-11T00:11:49.290Z,6.97
2019-01-11T00:14:18.926Z,7.23
2019-01-11T00:16:48.633Z,6.90
2019-01-11T00:19:18.655Z,7.87
2019-01-11T00:21:48.346Z,7.00
2019-01-11T00:24:18.042Z,8.60
2019-01-11T00:26:47.757Z,8.20
2019-01-11T00:29:17.353Z,7.70
2019-01-11T00:31:47.000Z,6.90
2019-01-11T00:34:16.765Z,5.93
2019-01-11T00:36:46.484Z,7.43
2019-01-11T00:39:16.098Z,7.93
2019-01-11T00:41:45.875Z,6.33
2019-01-11T00:44:15.894Z,8.63
2019-01-11T00:46:45.555Z,7.53
2019-01-11T00:49:15.258Z,9.00
2019-01-11T00:51:44.871Z,7.40
2019-01-11T00:54:14.554Z,9.73
2019-01-11T00:56:44.288Z,9.50
2019-01-11T00:59:13.974Z,8.63
2019-01-11T01:01:43.691Z,10.20
2019-01-11T01:04:13.348Z,10.10
2019-01-11T01:06:43.106Z,9.47
2019-01-11T01:09:12.734Z,11.47
2019-01-11T01:11:42.465Z,10.63
2019-01-11T01:14:12.594Z,11.63
2019-01-11T01:16:42.314Z,10.30
2019-01-11T01:19:12.302Z,11.97
2019-01-11T01:21:41.902Z,13.93
2019-01-11T01:24:12.073Z,11.20
2019-01-11T01:26:41.802Z,11.10
2019-01-11T01:29:11.498Z,11.03
2019-01-11T01:31:41.733Z,11.20
2019-01-11T01:34:11.454Z,13.27
2019-01-11T01:36:41.381Z,12.43
2019-01-11T01:39:12.024Z,14.83
2019-01-11T01:41:41.918Z,15.27
2019-01-11T01:44:11.509Z,17.17
2019-01-11T01:46:41.157Z,19.70
2019-01-11T01:49:10.940Z,17.60
2019-01-11T01:51:40.754Z,19.73
2019-01-11T01:54:10.442Z,23.97
2019-01-11T01:56:41.216Z,22.07
2019-01-11T01:59:11.115Z,21.57
2019-01-11T02:01:40.729Z,24.43
2019-01-11T02:04:10.450Z,22.20
2019-01-11T02:06:40.175Z,25.47
2019-01-11T02:09:09.857Z,24.90
2019-01-11T02:11:40.483Z,30.80
2019-01-11T02:14:10.190Z,28.87
2019-01-11T02:16:39.903Z,23.90
2019-01-11T02:19:09.566Z,27.80
2019-01-11T02:21:39.269Z,23.40
2019-01-11T02:24:09.033Z,26.00
2019-01-11T02:26:38.638Z,33.37
2019-01-11T02:29:08.274Z,27.47
2019-01-11T02:31:37.958Z,32.03
2019-01-11T02:34:07.616Z,30.57
2019-01-11T02:36:37.326Z,34.60
2019-01-11T02:39:07.832Z,35.97
2019-01-11T02:41:37.548Z,32.10
2019-01-11T02:44:07.317Z,37.27
2019-01-11T02:46:36.934Z,37.87
2019-01-11T02:49:06.656Z,39.73
2019-01-11T02:51:36.301Z,46.10
2019-01-11T02:54:06.013Z,36.20
2019-01-11T02:56:35.681Z,41.13
2019-01-11T02:59:05.489Z,49.17
2019-01-11T03:01:35.134Z,57.30
2019-01-11T03:04:04.973Z,47.13
2019-01-11T03:06:34.644Z,50.83
2019-01-11T03:09:06.912Z,56.70
2019-01-11T03:11:36.769Z,53.27
2019-01-11T03:14:06.574Z,49.03
2019-01-11T03:16:36.222Z,64.83
2019-01-11T03:19:05.959Z,57.50
2019-01-11T03:21:35.855Z,57.33
2019-01-11T03:24:05.500Z,82.87
2019-01-11T03:26:35.287Z,65.23
2019-01-11T03:29:04.904Z,73.00
2019-01-11T03:31:35.595Z,57.50
2019-01-11T03:34:05.477Z,60.63
2019-01-11T03:36:35.163Z,60.90
2019-01-11T03:39:07.919Z,47.07
2019-01-11T03:41:51.011Z,64.73
2019-01-11T03:44:20.836Z,56.03
2019-01-11T03:46:50.468Z,55.37
2019-01-11T03:49:20.109Z,69.63
2019-01-11T03:51:49.773Z,89.57
2019-01-11T03:54:19.420Z,64.83
2019-01-11T03:56:49.186Z,59.20
2019-01-11T03:59:18.887Z,61.47
2019-01-11T04:01:48.568Z,78.30
2019-01-11T04:04:18.335Z,79.93
2019-01-11T04:06:48.000Z,59.30
2019-01-11T04:09:18.608Z,64.33
2019-01-11T04:11:48.287Z,145.13
2019-01-11T04:14:17.979Z,162.40
2019-01-11T04:16:47.598Z,160.87
2019-01-11T04:19:17.578Z,141.23
2019-01-11T04:22:18.699Z,190.30
2019-01-11T04:25:04.573Z,183.93
2019-01-11T04:27:35.350Z,319.03
2019-01-11T04:30:09.110Z,185.83
2019-01-11T04:32:38.774Z,243.87
2019-01-11T04:35:09.998Z,252.23
2019-01-11T04:37:40.865Z,153.43
2019-01-11T04:40:12.207Z,141.67
2019-01-11T04:42:41.852Z,68.10
2019-01-11T04:45:11.665Z,71.50
2019-01-11T04:47:41.432Z,61.67
2019-01-11T04:50:14.006Z,69.60
2019-01-11T04:52:43.671Z,73.03
2019-01-11T04:55:13.637Z,47.90
2019-01-11T04:57:43.390Z,58.37
2019-01-11T05:00:18.593Z,59.60
2019-01-11T05:02:48.342Z,55.93
2019-01-11T05:05:18.343Z,47.65
2019-01-11T05:07:48.169Z,50.50
2019-01-11T05:10:19.544Z,48.17
2019-01-11T05:12:49.274Z,50.27
2019-01-11T05:15:18.967Z,58.55
2019-01-11T05:17:48.709Z,40.77
2019-01-11T05:20:18.430Z,46.77
2019-01-11T05:22:48.219Z,39.77
2019-01-11T05:25:17.912Z,42.13
2019-01-11T05:27:47.631Z,41.10
2019-01-11T05:30:18.749Z,47.37
2019-01-11T05:32:48.513Z,37.43
2019-01-11T05:35:18.167Z,42.67
2019-01-11T05:37:47.911Z,36.93
2019-01-11T05:40:23.116Z,39.27
2019-01-11T05:42:52.920Z,36.90
2019-01-11T05:45:23.804Z,41.43
2019-01-11T05:47:53.495Z,41.90
2019-01-11T05:50:24.235Z,43.03
2019-01-11T05:52:54.214Z,36.20
2019-01-11T05:55:44.737Z,34.43
2019-01-11T05:58:29.969Z,40.13
2019-01-11T06:00:59.775Z,33.10
2019-01-11T06:03:29.357Z,40.90
2019-01-11T06:05:59.110Z,33.50
2019-01-11T06:08:29.822Z,46.90
2019-01-11T06:10:59.562Z,30.10
2019-01-11T06:13:29.275Z,35.70
2019-01-11T06:15:58.990Z,36.30
2019-01-11T06:18:28.688Z,27.57
2019-01-11T06:20:58.378Z,36.50
2019-01-11T06:23:28.157Z,38.13
2019-01-11T06:25:57.807Z,43.20
2019-01-11T06:28:27.516Z,38.63
2019-01-11T06:30:57.198Z,27.57
2019-01-11T06:33:26.925Z,44.80
2019-01-11T06:35:56.538Z,45.33
2019-01-11T06:38:26.130Z,28.53
2019-01-11T06:40:55.929Z,39.03
2019-01-11T06:43:25.574Z,28.43
2019-01-11T06:45:55.212Z,28.67
2019-01-11T06:48:42.803Z,35.07
2019-01-11T06:51:12.710Z,41.60
2019-01-11T06:53:42.422Z,36.33
2019-01-11T06:56:12.026Z,30.20
2019-01-11T06:58:41.738Z,35.63
2019-01-11T07:01:11.453Z,42.20
2019-01-11T07:03:41.059Z,39.97
2019-01-11T07:06:10.674Z,33.65
2019-01-11T07:08:40.454Z,39.00
2019-01-11T07:11:10.094Z,52.63
2019-01-11T07:13:39.807Z,41.70
2019-01-11T07:16:09.497Z,33.05
2019-01-11T07:18:39.121Z,29.23
2019-01-11T07:21:08.841Z,35.03
2019-01-11T07:23:38.597Z,30.30
2019-01-11T07:26:08.277Z,43.27
2019-01-11T07:28:37.961Z,30.90
2019-01-11T07:31:12.739Z,36.77
2019-01-11T07:33:42.565Z,38.33
2019-01-11T07:36:23.056Z,25.52
2019-01-11T07:38:52.869Z,31.87
2019-01-11T07:41:22.598Z,33.10
2019-01-11T07:43:52.353Z,35.63
2019-01-11T07:46:22.129Z,31.53
2019-01-11T07:48:51.901Z,37.13
2019-01-11T07:51:21.656Z,39.15
2019-01-11T07:53:51.444Z,35.80
2019-01-11T07:56:21.118Z,30.47
2019-01-11T07:58:51.109Z,34.03
2019-01-11T08:01:20.781Z,38.17
2019-01-11T08:03:50.498Z,34.93
2019-01-11T08:06:20.209Z,38.17
2019-01-11T08:08:50.325Z,28.47
2019-01-11T08:11:19.975Z,26.57
2019-01-11T08:13:49.680Z,38.90
2019-01-11T08:16:19.438Z,36.90
2019-01-11T08:18:49.089Z,35.07
2019-01-11T08:21:18.778Z,36.05
2019-01-11T08:23:48.549Z,37.60
2019-01-11T08:26:18.339Z,27.75
2019-01-11T08:28:48.028Z,33.50
2019-01-11T08:31:17.875Z,43.50
2019-01-11T08:33:47.619Z,34.03
2019-01-11T08:36:17.336Z,35.52
2019-01-11T08:38:47.002Z,38.27
2019-01-11T08:41:16.843Z,38.80
2019-01-11T08:43:46.499Z,43.13
2019-01-11T08:46:16.165Z,30.82
2019-01-11T08:48:45.799Z,30.73
2019-01-11T08:51:17.326Z,32.90
2019-01-11T08:53:46.965Z,25.13
2019-01-11T08:56:16.710Z,36.03
2019-01-11T08:58:46.529Z,34.43
2019-01-11T09:01:16.354Z,29.00
2019-01-11T09:03:46.297Z,35.83
2019-01-11T09:06:16.097Z,35.30
2019-01-11T09:08:45.789Z,22.17
2019-01-11T09:11:15.420Z,30.12
2019-01-11T09:13:45.054Z,25.13
2019-01-11T09:16:20.507Z,38.17
2019-01-11T09:18:52.749Z,39.70
2019-01-11T09:21:22.527Z,21.50
2019-01-11T09:23:52.164Z,24.83
2019-01-11T09:26:21.874Z,26.63
2019-01-11T09:28:51.541Z,19.93
2019-01-11T09:31:21.437Z,22.37
2019-01-11T09:33:51.113Z,22.63
2019-01-11T09:36:20.750Z,34.40
2019-01-11T09:38:50.413Z,22.60
2019-01-11T09:41:20.108Z,21.80
2019-01-11T09:43:49.742Z,31.00
2019-01-11T09:46:19.374Z,19.15
2019-01-11T09:48:49.069Z,21.30
2019-01-11T09:51:18.782Z,21.87
2019-01-11T09:53:48.493Z,20.50
2019-01-11T09:56:18.206Z,21.57
2019-01-11T09:58:47.901Z,20.37
2019-01-11T10:01:17.490Z,19.92
2019-01-11T10:03:47.111Z,18.80
2019-01-11T10:06:16.716Z,15.20
2019-01-11T10:08:46.337Z,20.00
2019-01-11T10:11:16.035Z,29.37
2019-01-11T10:13:45.693Z,17.83
2019-01-11T10:16:16.315Z,20.85
2019-01-11T10:18:45.993Z,10.53
2019-01-11T10:21:22.016Z,15.78
2019-01-11T10:23:47.370Z,18.10
2019-01-11T10:26:17.472Z,12.87
2019-01-11T10:28:47.895Z,13.83
2019-01-11T10:31:17.521Z,9.60
2019-01-11T10:33:47.232Z,18.90
2019-01-11T10:36:17.842Z,15.23
2019-01-11T10:38:47.450Z,11.27
2019-01-11T10:41:17.073Z,8.67
2019-01-11T10:43:46.698Z,14.47
2019-01-11T10:46:30.406Z,11.85
2019-01-11T10:49:00.002Z,10.40
2019-01-11T10:51:29.598Z,10.90
2019-01-11T10:53:59.271Z,13.90
2019-01-11T10:56:28.921Z,11.10
2019-01-11T10:58:58.810Z,9.13
2019-01-11T11:01:28.474Z,16.03
2019-01-11T11:03:58.086Z,12.10
2019-01-11T11:06:27.802Z,13.47
2019-01-11T11:08:57.470Z,8.27
2019-01-11T11:11:27.103Z,9.73
2019-01-11T11:13:56.812Z,13.03
2019-01-11T11:16:26.442Z,11.80
2019-01-11T11:18:56.108Z,14.37
2019-01-11T11:21:25.764Z,16.93
2019-01-11T11:23:55.418Z,18.80
2019-01-11T11:26:25.053Z,14.27
2019-01-11T11:28:54.989Z,10.93
2019-01-11T11:31:24.705Z,13.33
2019-01-11T11:33:54.409Z,15.07
2019-01-11T11:36:24.094Z,14.47
2019-01-11T11:38:53.881Z,12.23
2019-01-11T11:41:23.815Z,14.60
2019-01-11T11:43:53.437Z,7.93
2019-01-11T11:46:23.058Z,12.33
2019-01-11T11:48:52.755Z,14.53
2019-01-11T11:51:22.478Z,12.73
2019-01-11T11:53:52.185Z,11.70
2019-01-11T11:56:21.877Z,17.43
2019-01-11T11:58:51.470Z,16.37
2019-01-11T12:01:21.110Z,11.43
2019-01-11T12:03:50.881Z,14.47
2019-01-11T12:06:20.560Z,10.45
2019-01-11T12:08:50.153Z,13.00
2019-01-11T12:11:19.835Z,14.53
2019-01-11T12:13:49.417Z,13.90
2019-01-11T12:16:19.086Z,14.83
2019-01-11T12:18:48.737Z,10.57
2019-01-11T12:21:18.438Z,13.60
2019-01-11T12:23:48.062Z,18.10
2019-01-11T12:26:17.785Z,19.10
2019-01-11T12:28:47.411Z,14.90
2019-01-11T12:31:17.038Z,17.40
2019-01-11T12:33:46.646Z,20.80
2019-01-11T12:36:16.294Z,13.08
2019-01-11T12:38:45.962Z,15.80
2019-01-11T12:41:15.562Z,20.12
2019-01-11T12:43:45.193Z,17.13
2019-01-11T12:46:14.809Z,20.37
2019-01-11T12:48:44.466Z,15.30
2019-01-11T12:51:14.521Z,20.27
2019-01-11T12:53:44.197Z,22.67
2019-01-11T12:56:14.009Z,19.45
2019-01-11T12:58:43.709Z,21.70
2019-01-11T13:01:13.547Z,15.93
2019-01-11T13:03:43.333Z,21.57
2019-01-11T13:06:13.250Z,16.57
2019-01-11T13:08:43.110Z,20.23
2019-01-11T13:11:12.880Z,15.98
2019-01-11T13:13:42.573Z,28.50
2019-01-11T13:16:12.313Z,33.55
2019-01-11T13:18:42.067Z,53.80
2019-01-11T13:21:11.902Z,43.98
2019-01-11T13:23:41.536Z,17.57
2019-01-11T13:26:11.362Z,18.75
2019-01-11T13:28:41.129Z,22.97
2019-01-11T13:31:10.775Z,25.25
2019-01-11T13:33:40.458Z,20.70
2019-01-11T13:36:13.276Z,22.10
2019-01-11T13:38:42.962Z,22.40
2019-01-11T13:41:12.695Z,32.60
2019-01-11T13:43:42.417Z,22.73
2019-01-11T13:46:12.065Z,30.97
2019-01-11T13:48:41.894Z,20.00
2019-01-11T13:51:13.174Z,38.80
2019-01-11T13:53:42.950Z,30.60
2019-01-11T13:56:12.577Z,23.45
2019-01-11T13:58:42.462Z,24.93
2019-01-11T14:01:12.113Z,28.73
2019-01-11T14:03:41.877Z,25.47
2019-01-11T14:06:11.502Z,20.77
2019-01-11T14:08:41.096Z,22.90
2019-01-11T14:11:10.725Z,19.37
2019-01-11T14:13:41.286Z,21.37
2019-01-11T14:16:11.228Z,29.67
2019-01-11T14:18:40.873Z,31.20
2019-01-11T14:21:10.694Z,29.85
2019-01-11T14:23:40.393Z,26.30
2019-01-11T14:26:10.346Z,28.03
2019-01-11T14:28:40.143Z,14.03
2019-01-11T14:31:09.954Z,27.52
2019-01-11T14:33:39.963Z,32.53
2019-01-11T14:36:09.592Z,29.12
2019-01-11T14:38:39.455Z,39.13
2019-01-11T14:41:09.113Z,28.85
2019-01-11T14:43:38.943Z,33.07
2019-01-11T14:46:08.616Z,26.37
2019-01-11T14:48:38.297Z,35.97
2019-01-11T14:51:08.419Z,34.30
2019-01-11T14:53:38.075Z,37.13
2019-01-11T14:56:07.774Z,25.10
2019-01-11T14:58:37.442Z,29.97
2019-01-11T15:01:07.131Z,30.97
2019-01-11T15:03:36.814Z,33.70
2019-01-11T15:06:07.497Z,38.70
2019-01-11T15:08:37.167Z,27.47
2019-01-11T15:11:06.841Z,34.63
2019-01-11T15:13:36.581Z,32.00
2019-01-11T15:16:06.270Z,29.77
2019-01-11T15:18:35.955Z,41.20
2019-01-11T15:21:05.650Z,35.73
2019-01-11T15:23:35.282Z,26.43
2019-01-11T15:26:04.957Z,33.67
2019-01-11T15:28:34.703Z,33.57
2019-01-11T15:31:04.865Z,34.30
2019-01-11T15:33:34.537Z,33.07
2019-01-11T15:36:05.003Z,36.37
2019-01-11T15:38:34.741Z,45.87
2019-01-11T15:41:05.015Z,39.37
2019-01-11T15:43:34.714Z,40.03
2019-01-11T15:46:06.693Z,32.77
2019-01-11T15:48:44.918Z,35.73
2019-01-11T15:51:15.777Z,37.30
2019-01-11T15:53:45.759Z,40.83
2019-01-11T15:56:21.841Z,60.05
2019-01-11T15:58:51.586Z,37.50
2019-01-11T16:01:21.333Z,45.67
2019-01-11T16:03:51.047Z,50.20
2019-01-11T16:06:31.901Z,44.85
2019-01-11T16:10:15.809Z,54.33
2019-01-11T16:12:57.838Z,48.03
2019-01-11T16:15:48.156Z,37.20
2019-01-11T16:18:26.509Z,48.73
2019-01-11T16:20:56.135Z,41.63
2019-01-11T16:23:25.785Z,43.33
2019-01-11T16:25:55.521Z,42.07
2019-01-11T16:28:25.248Z,47.63
2019-01-11T16:30:54.986Z,43.80
2019-01-11T16:33:24.696Z,46.00
2019-01-11T16:35:54.302Z,44.27
2019-01-11T16:38:24.459Z,44.67
2019-01-11T16:40:54.497Z,41.50
2019-01-11T16:43:24.298Z,47.83
2019-01-11T16:45:53.942Z,49.30
2019-01-11T16:48:23.616Z,51.20
2019-01-11T16:50:53.386Z,34.33
2019-01-11T16:53:23.277Z,49.17
2019-01-11T16:55:52.982Z,51.50
2019-01-11T16:58:22.698Z,43.80
2019-01-11T17:00:52.481Z,49.83
2019-01-11T17:03:22.199Z,54.50
2019-01-11T17:05:51.953Z,58.30
2019-01-11T17:08:21.828Z,59.43
2019-01-11T17:10:52.098Z,53.17
2019-01-11T17:13:21.798Z,60.97
2019-01-11T17:15:52.650Z,51.30
2019-01-11T17:18:22.454Z,46.20
2019-01-11T17:20:52.630Z,50.17
2019-01-11T17:23:22.346Z,49.87
2019-01-11T17:25:52.039Z,57.93
2019-01-11T17:28:21.705Z,50.40
2019-01-11T17:30:51.473Z,51.00
2019-01-11T17:33:21.123Z,55.73
2019-01-11T17:35:50.773Z,46.80
2019-01-11T17:38:20.458Z,49.67
2019-01-11T17:40:50.182Z,50.88
2019-01-11T17:43:19.861Z,46.63
2019-01-11T17:45:49.609Z,59.07
2019-01-11T17:48:19.389Z,54.33
2019-01-11T17:50:49.494Z,57.70
2019-01-11T17:53:19.218Z,56.03
2019-01-11T17:55:49.063Z,44.87
2019-01-11T17:58:19.102Z,61.83
2019-01-11T18:00:48.814Z,48.77
2019-01-11T18:03:18.446Z,45.03
2019-01-11T18:05:48.408Z,52.97
2019-01-11T18:08:18.070Z,47.60
2019-01-11T18:10:47.984Z,58.53
2019-01-11T18:13:17.686Z,40.57
2019-01-11T18:15:47.957Z,58.97
2019-01-11T18:18:18.915Z,47.17
2019-01-11T18:20:48.595Z,48.73
2019-01-11T18:23:18.331Z,54.20
2019-01-11T18:25:48.066Z,55.87
2019-01-11T18:28:17.717Z,46.53
2019-01-11T18:30:47.429Z,61.50
2019-01-11T18:33:17.155Z,52.13
2019-01-11T18:35:46.813Z,55.73
2019-01-11T18:38:16.501Z,52.00
2019-01-11T18:40:46.152Z,45.93
2019-01-11T18:43:15.765Z,50.73
2019-01-11T18:45:45.401Z,45.60
2019-01-11T18:48:15.101Z,52.73
2019-01-11T18:50:45.681Z,55.20
2019-01-11T18:53:15.295Z,64.20
2019-01-11T18:55:45.107Z,57.90
2019-01-11T18:58:14.762Z,56.07
2019-01-11T19:00:44.418Z,49.93
2019-01-11T19:03:14.313Z,50.10
2019-01-11T19:05:44.102Z,49.40
2019-01-11T19:08:14.079Z,57.97
2019-01-11T19:10:44.012Z,44.10
2019-01-11T19:13:15.494Z,46.27
2019-01-11T19:15:46.096Z,48.53
2019-01-11T19:18:16.530Z,43.00
2019-01-11T19:20:47.066Z,56.47
2019-01-11T19:23:20.525Z,50.93
2019-01-11T19:25:52.834Z,41.07
2019-01-11T19:28:23.328Z,55.93
2019-01-11T19:30:56.249Z,53.80
2019-01-11T19:33:26.288Z,54.87
2019-01-11T19:35:56.412Z,46.83
2019-01-11T19:38:27.946Z,41.43
2019-01-11T19:40:58.223Z,38.33
2019-01-11T19:43:28.623Z,44.77
2019-01-11T19:45:58.978Z,37.90
2019-01-11T19:48:28.985Z,45.37
2019-01-11T19:50:59.704Z,42.63
2019-01-11T19:53:29.691Z,54.13
2019-01-11T19:55:59.852Z,47.63
2019-01-11T19:58:29.560Z,54.47
2019-01-11T20:00:59.647Z,39.27
2019-01-11T20:03:31.709Z,47.03
2019-01-11T20:06:02.011Z,42.70
2019-01-11T20:08:32.190Z,36.63
2019-01-11T20:11:03.142Z,32.83
2019-01-11T20:13:36.403Z,42.53
2019-01-11T20:16:06.850Z,35.90
2019-01-11T20:18:38.789Z,38.20
2019-01-11T20:21:09.903Z,41.53
2019-01-11T20:23:42.309Z,37.70
2019-01-11T20:26:12.266Z,40.23
2019-01-11T20:28:48.610Z,40.37
2019-01-11T20:31:21.168Z,39.67
2019-01-11T20:33:50.890Z,37.87
2019-01-11T20:36:21.198Z,37.23
2019-01-11T20:38:59.674Z,54.13
2019-01-11T20:41:29.415Z,36.23
2019-01-11T20:43:59.413Z,44.93
2019-01-11T20:46:29.666Z,40.97
2019-01-11T20:49:04.121Z,47.10
2019-01-11T20:51:52.031Z,39.63
2019-01-11T20:54:16.038Z,32.43
2019-01-11T20:56:46.812Z,34.20
2019-01-11T20:59:16.991Z,40.63
2019-01-11T21:01:47.179Z,44.17
2019-01-11T21:04:17.734Z,37.50
2019-01-11T21:06:49.573Z,31.50
2019-01-11T21:09:20.246Z,41.07
2019-01-11T21:11:52.147Z,42.67
2019-01-11T21:14:23.230Z,47.53
2019-01-11T21:17:00.263Z,51.60
2019-01-11T21:19:32.727Z,46.40
2019-01-11T21:22:02.665Z,42.87
2019-01-11T21:24:33.635Z,45.40
2019-01-11T21:27:07.201Z,39.10
2019-01-11T21:29:39.104Z,42.60
2019-01-11T21:32:14.269Z,40.60
2019-01-11T21:34:43.967Z,39.17
2019-01-11T21:37:17.525Z,48.33
2019-01-11T21:39:47.858Z,38.70
2019-01-11T21:42:19.204Z,36.77
2019-01-11T21:44:49.224Z,46.23
2019-01-11T21:47:22.601Z,43.20
2019-01-11T21:49:56.791Z,56.23
2019-01-11T21:52:26.450Z,48.17
2019-01-11T21:54:56.074Z,39.03
2019-01-11T21:57:25.807Z,39.60
2019-01-11T21:59:55.743Z,31.17
2019-01-11T22:02:25.479Z,42.57
2019-01-11T22:04:55.130Z,42.20
2019-01-11T22:07:24.935Z,41.37
2019-01-11T22:09:54.658Z,43.70
2019-01-11T22:12:24.375Z,43.40
2019-01-11T22:14:54.302Z,40.47
2019-01-11T22:17:23.989Z,47.10
2019-01-11T22:19:53.692Z,40.97
2019-01-11T22:22:23.365Z,46.40
2019-01-11T22:24:53.109Z,48.33
2019-01-11T22:27:22.734Z,43.30
2019-01-11T22:29:52.450Z,50.27
2019-01-11T22:32:22.145Z,52.87
2019-01-11T22:34:51.879Z,44.60
2019-01-11T22:37:21.548Z,41.03
2019-01-11T22:39:51.184Z,47.37
2019-01-11T22:42:20.877Z,43.87
2019-01-11T22:44:50.738Z,32.67
2019-01-11T22:47:20.418Z,34.90
2019-01-11T22:49:50.101Z,48.70
2019-01-11T22:52:19.811Z,53.83
2019-01-11T22:54:49.514Z,38.17
2019-01-11T22:57:19.125Z,40.00
2019-01-11T22:59:48.728Z,52.70
2019-01-11T23:02:43.533Z,27.70
2019-01-11T23:05:14.261Z,42.17
2019-01-11T23:08:02.177Z,38.23
2019-01-11T23:10:51.461Z,42.40
2019-01-11T23:13:21.069Z,34.40
2019-01-11T23:15:57.604Z,40.00
2019-01-11T23:18:28.766Z,42.37
2019-01-11T23:21:04.228Z,43.60
2019-01-11T23:23:33.848Z,54.47
2019-01-11T23:26:04.934Z,36.83
2019-01-11T23:28:34.625Z,45.00
2019-01-11T23:31:04.874Z,48.20
2019-01-11T23:33:34.543Z,40.40
2019-01-11T23:36:05.112Z,47.03
2019-01-11T23:38:34.778Z,45.70
2019-01-11T23:41:04.918Z,44.40
2019-01-11T23:43:34.613Z,39.27
2019-01-11T23:46:05.186Z,39.57
2019-01-11T23:48:34.866Z,43.63
2019-01-11T23:51:04.991Z,44.30
2019-01-11T23:53:34.702Z,39.47
2019-01-11T23:56:05.026Z,36.80
2019-01-11T23:58:34.709Z,50.33
